createdAt,value
2024-02-18T00:00:14.419Z,0.00
2024-02-18T00:01:14.457Z,0.00
2024-02-18T00:02:14.415Z,0.00
2024-02-18T00:03:14.382Z,0.00
2024-02-18T00:04:14.477Z,0.00
2024-02-18T00:05:14.422Z,0.00
2024-02-18T00:06:14.466Z,0.00
2024-02-18T00:07:14.404Z,0.00
2024-02-18T00:08:14.361Z,0.00
2024-02-18T00:09:14.337Z,0.00
2024-02-18T00:10:14.335Z,0.00
2024-02-18T00:11:14.341Z,0.00
2024-02-18T00:12:14.314Z,0.00
2024-02-18T00:13:14.302Z,0.00
2024-02-18T00:14:14.327Z,0.00
2024-02-18T00:15:14.317Z,0.00
2024-02-18T00:16:14.260Z,0.00
2024-02-18T00:17:14.260Z,0.00
2024-02-18T00:18:14.322Z,0.00
2024-02-18T00:19:14.311Z,0.00
2024-02-18T00:20:14.281Z,0.00
2024-02-18T00:21:14.217Z,0.00
2024-02-18T00:22:14.212Z,0.00
2024-02-18T00:23:14.186Z,0.00
2024-02-18T00:24:14.199Z,0.00
2024-02-18T00:25:14.162Z,0.00
2024-02-18T00:26:14.162Z,0.00
2024-02-18T00:27:14.146Z,0.00
2024-02-18T00:28:14.144Z,0.00
2024-02-18T00:29:14.147Z,0.00
2024-02-18T00:30:14.137Z,0.00
2024-02-18T00:31:14.105Z,0.00
2024-02-18T00:32:14.103Z,0.00
2024-02-18T00:33:14.881Z,0.00
2024-02-18T00:34:14.189Z,0.00
2024-02-18T00:35:14.072Z,0.00
2024-02-18T00:36:14.056Z,0.00
2024-02-18T00:37:14.039Z,0.00
2024-02-18T00:38:14.066Z,0.00
2024-02-18T00:39:14.038Z,0.00
2024-02-18T00:40:14.091Z,0.00
2024-02-18T00:41:14.003Z,0.00
2024-02-18T00:42:13.998Z,0.00
2024-02-18T00:43:14.014Z,0.00
2024-02-18T00:44:13.995Z,0.00
2024-02-18T00:45:13.990Z,0.00
2024-02-18T00:46:24.159Z,0.00
2024-02-18T00:47:14.288Z,0.00
2024-02-18T00:48:14.037Z,0.00
2024-02-18T00:49:13.951Z,0.00
2024-02-18T00:50:13.928Z,0.00
2024-02-18T00:51:13.915Z,0.00
2024-02-18T00:52:14.402Z,0.00
2024-02-18T00:53:13.882Z,0.00
2024-02-18T00:54:13.892Z,0.00
2024-02-18T00:55:13.894Z,0.00
2024-02-18T00:56:13.850Z,0.00
2024-02-18T00:57:14.421Z,0.00
2024-02-18T00:58:13.850Z,0.00
2024-02-18T00:59:13.812Z,0.00
2024-02-18T01:00:13.817Z,0.00
2024-02-18T01:01:13.885Z,0.00
2024-02-18T01:02:14.382Z,0.00
2024-02-18T01:03:13.844Z,0.00
2024-02-18T01:04:13.885Z,0.00
2024-02-18T01:05:13.793Z,0.00
2024-02-18T01:06:13.774Z,0.00
2024-02-18T01:07:13.759Z,0.00
2024-02-18T01:08:13.736Z,0.00
2024-02-18T01:09:13.724Z,0.00
2024-02-18T01:10:13.767Z,0.00
2024-02-18T01:11:13.794Z,0.00
2024-02-18T01:12:13.691Z,0.00
2024-02-18T01:13:13.678Z,0.00
2024-02-18T01:14:13.694Z,0.00
2024-02-18T01:15:13.672Z,0.00
2024-02-18T01:16:13.698Z,0.00
2024-02-18T01:17:13.640Z,0.00
2024-02-18T01:18:13.675Z,0.00
2024-02-18T01:19:13.714Z,0.00
2024-02-18T01:20:13.634Z,0.00
2024-02-18T01:21:13.611Z,0.00
2024-02-18T01:22:13.596Z,0.00
2024-02-18T01:23:13.577Z,0.00
2024-02-18T01:24:13.578Z,0.00
2024-02-18T01:25:13.652Z,0.00
2024-02-18T01:26:13.561Z,0.00
2024-02-18T01:27:13.543Z,0.00
2024-02-18T01:28:13.534Z,0.00
2024-02-18T01:29:13.520Z,0.00
2024-02-18T01:30:13.532Z,0.00
2024-02-18T01:31:13.514Z,0.00
2024-02-18T01:32:13.491Z,0.00
2024-02-18T01:33:13.515Z,0.00
2024-02-18T01:34:13.604Z,0.00
2024-02-18T01:35:13.564Z,0.00
2024-02-18T01:36:13.459Z,0.00
2024-02-18T01:37:13.437Z,0.00
2024-02-18T01:38:13.427Z,0.00
2024-02-18T01:39:13.434Z,0.00
2024-02-18T01:40:13.471Z,0.00
2024-02-18T01:41:13.401Z,0.00
2024-02-18T01:42:13.393Z,0.00
2024-02-18T01:43:13.380Z,0.00
2024-02-18T01:44:13.396Z,0.00
2024-02-18T01:45:13.356Z,0.00
2024-02-18T01:46:13.394Z,0.00
2024-02-18T01:47:13.334Z,0.00
2024-02-18T01:48:13.515Z,0.00
2024-02-18T01:49:13.538Z,0.00
2024-02-18T01:50:13.444Z,0.00
2024-02-18T01:51:13.293Z,0.00
2024-02-18T01:52:13.304Z,0.00
2024-02-18T01:53:13.298Z,0.00
2024-02-18T01:54:13.274Z,0.00
2024-02-18T01:55:13.253Z,0.00
2024-02-18T01:56:13.257Z,0.00
2024-02-18T01:57:13.236Z,0.00
2024-02-18T01:58:13.254Z,0.00
2024-02-18T01:59:13.229Z,0.00
2024-02-18T02:00:13.204Z,0.00
2024-02-18T02:01:13.285Z,0.00
2024-02-18T02:02:13.209Z,0.00
2024-02-18T02:03:13.198Z,0.00
2024-02-18T02:04:13.267Z,0.00
2024-02-18T02:05:13.189Z,0.00
2024-02-18T02:06:13.312Z,0.00
2024-02-18T02:07:13.201Z,0.00
2024-02-18T02:08:13.151Z,0.00
2024-02-18T02:09:13.100Z,0.00
2024-02-18T02:10:13.206Z,0.00
2024-02-18T02:11:13.171Z,0.00
2024-02-18T02:12:13.100Z,0.00
2024-02-18T02:13:13.094Z,0.00
2024-02-18T02:14:13.060Z,0.00
2024-02-18T02:15:13.072Z,0.00
2024-02-18T02:16:13.097Z,0.00
2024-02-18T02:17:13.052Z,0.00
2024-02-18T02:18:13.078Z,0.00
2024-02-18T02:19:13.107Z,0.00
2024-02-18T02:20:13.054Z,0.00
2024-02-18T02:21:13.255Z,0.00
2024-02-18T02:22:13.082Z,0.00
2024-02-18T02:23:12.998Z,0.00
2024-02-18T02:24:12.972Z,0.00
2024-02-18T02:25:13.040Z,0.00
2024-02-18T02:26:12.949Z,0.00
2024-02-18T02:27:12.942Z,0.00
2024-02-18T02:28:12.977Z,0.00
2024-02-18T02:29:12.924Z,0.00
2024-02-18T02:30:12.907Z,0.00
2024-02-18T02:31:13.231Z,0.00
2024-02-18T02:32:12.875Z,0.00
2024-02-18T02:33:12.899Z,0.00
2024-02-18T02:34:12.891Z,0.00
2024-02-18T02:35:13.018Z,0.00
2024-02-18T02:36:12.853Z,0.00
2024-02-18T02:37:12.825Z,0.00
2024-02-18T02:38:12.817Z,0.00
2024-02-18T02:39:12.808Z,0.00
2024-02-18T02:40:12.836Z,0.00
2024-02-18T02:41:12.772Z,0.00
2024-02-18T02:42:12.790Z,0.00
2024-02-18T02:43:12.836Z,0.00
2024-02-18T02:44:12.761Z,0.00
2024-02-18T02:45:12.747Z,0.00
2024-02-18T02:46:12.754Z,0.00
2024-02-18T02:47:12.715Z,0.00
2024-02-18T02:48:12.749Z,0.00
2024-02-18T02:49:12.809Z,0.00
2024-02-18T02:50:12.692Z,0.00
2024-02-18T02:51:12.681Z,0.00
2024-02-18T02:52:12.718Z,0.00
2024-02-18T02:53:12.661Z,0.00
2024-02-18T02:54:12.667Z,0.00
2024-02-18T02:55:12.671Z,0.00
2024-02-18T02:56:12.630Z,0.00
2024-02-18T02:57:12.611Z,0.00
2024-02-18T02:58:12.670Z,0.00
2024-02-18T02:59:12.610Z,0.00
2024-02-18T03:00:12.641Z,0.00
2024-02-18T03:01:12.644Z,0.00
2024-02-18T03:02:12.561Z,0.00
2024-02-18T03:03:12.574Z,0.00
2024-02-18T03:04:12.640Z,0.00
2024-02-18T03:05:12.643Z,0.00
2024-02-18T03:06:12.554Z,0.00
2024-02-18T03:07:12.527Z,0.00
2024-02-18T03:08:12.522Z,0.00
2024-02-18T03:09:12.484Z,0.00
2024-02-18T03:10:12.541Z,0.00
2024-02-18T03:11:12.485Z,0.00
2024-02-18T03:12:12.563Z,0.00
2024-02-18T03:13:12.484Z,0.00
2024-02-18T03:14:12.453Z,0.00
2024-02-18T03:15:12.425Z,0.00
2024-02-18T03:16:12.470Z,0.00
2024-02-18T03:17:12.421Z,0.00
2024-02-18T03:18:12.454Z,0.00
2024-02-18T03:19:12.479Z,0.00
2024-02-18T03:20:12.415Z,0.00
2024-02-18T03:21:12.373Z,0.00
2024-02-18T03:22:12.444Z,0.00
2024-02-18T03:23:12.350Z,0.00
2024-02-18T03:24:12.341Z,0.00
2024-02-18T03:25:12.365Z,0.00
2024-02-18T03:26:12.318Z,0.00
2024-02-18T03:27:12.348Z,0.00
2024-02-18T03:28:12.353Z,0.00
2024-02-18T03:29:12.285Z,0.00
2024-02-18T03:30:12.284Z,0.00
2024-02-18T03:31:12.324Z,0.00
2024-02-18T03:32:12.283Z,0.00
2024-02-18T03:33:12.287Z,0.00
2024-02-18T03:34:12.306Z,0.00
2024-02-18T03:35:12.242Z,0.00
2024-02-18T03:36:12.225Z,0.00
2024-02-18T03:37:12.569Z,0.00
2024-02-18T03:38:12.204Z,0.00
2024-02-18T03:39:12.204Z,0.00
2024-02-18T03:40:12.256Z,0.00
2024-02-18T03:41:12.208Z,0.00
2024-02-18T03:42:12.160Z,0.00
2024-02-18T03:43:12.168Z,0.00
2024-02-18T03:44:12.129Z,0.00
2024-02-18T03:45:12.143Z,0.00
2024-02-18T03:46:12.607Z,0.00
2024-02-18T03:47:12.151Z,0.00
2024-02-18T03:48:12.139Z,0.00
2024-02-18T03:49:12.153Z,0.00
2024-02-18T03:50:12.113Z,0.00
2024-02-18T03:51:12.072Z,0.00
2024-02-18T03:52:12.045Z,0.00
2024-02-18T03:53:12.050Z,0.00
2024-02-18T03:54:12.031Z,0.00
2024-02-18T03:55:12.102Z,0.00
2024-02-18T03:56:13.224Z,0.00
2024-02-18T03:57:12.015Z,0.00
2024-02-18T03:58:12.024Z,0.00
2024-02-18T03:59:12.066Z,0.00
2024-02-18T04:00:12.006Z,0.00
2024-02-18T04:01:12.074Z,0.00
2024-02-18T04:02:11.951Z,0.00
2024-02-18T04:03:11.950Z,0.00
2024-02-18T04:04:12.049Z,0.00
2024-02-18T04:05:12.014Z,0.00
2024-02-18T04:06:12.029Z,0.00
2024-02-18T04:07:11.944Z,0.00
2024-02-18T04:08:11.931Z,0.00
2024-02-18T04:09:11.911Z,0.00
2024-02-18T04:10:11.930Z,0.00
2024-02-18T04:11:11.921Z,0.00
2024-02-18T04:12:11.844Z,0.00
2024-02-18T04:13:11.865Z,0.00
2024-02-18T04:14:11.845Z,0.00
2024-02-18T04:15:11.837Z,0.00
2024-02-18T04:16:11.825Z,0.00
2024-02-18T04:17:11.801Z,0.00
2024-02-18T04:18:11.916Z,0.00
2024-02-18T04:19:11.876Z,0.00
2024-02-18T04:20:11.785Z,0.00
2024-02-18T04:21:11.759Z,0.00
2024-02-18T04:22:11.760Z,0.00
2024-02-18T04:23:11.761Z,0.00
2024-02-18T04:24:11.714Z,0.00
2024-02-18T04:25:11.787Z,0.00
2024-02-18T04:26:11.706Z,0.00
2024-02-18T04:27:11.689Z,0.00
2024-02-18T04:28:11.832Z,0.00
2024-02-18T04:29:11.682Z,0.00
2024-02-18T04:30:11.647Z,0.00
2024-02-18T04:31:11.720Z,0.00
2024-02-18T04:32:11.675Z,0.00
2024-02-18T04:33:11.758Z,0.00
2024-02-18T04:34:11.684Z,0.00
2024-02-18T04:35:11.737Z,0.00
2024-02-18T04:36:11.596Z,0.00
2024-02-18T04:37:11.639Z,0.00
2024-02-18T04:38:11.592Z,0.00
2024-02-18T04:39:11.572Z,0.00
2024-02-18T04:40:11.642Z,0.00
2024-02-18T04:41:11.551Z,0.00
2024-02-18T04:42:11.563Z,0.00
2024-02-18T04:43:11.562Z,0.00
2024-02-18T04:44:11.518Z,0.00
2024-02-18T04:45:11.500Z,0.00
2024-02-18T04:46:11.547Z,0.00
2024-02-18T04:47:11.506Z,0.00
2024-02-18T04:48:11.632Z,0.00
2024-02-18T04:49:11.531Z,0.00
2024-02-18T04:50:11.456Z,0.00
2024-02-18T04:51:11.465Z,0.00
2024-02-18T04:52:11.545Z,0.00
2024-02-18T04:53:11.427Z,0.00
2024-02-18T04:54:11.410Z,0.00
2024-02-18T04:55:11.495Z,0.00
2024-02-18T04:56:11.422Z,0.00
2024-02-18T04:57:11.394Z,0.00
2024-02-18T04:58:11.411Z,0.00
2024-02-18T04:59:11.382Z,0.00
2024-02-18T05:00:11.394Z,0.00
2024-02-18T05:01:11.457Z,0.00
2024-02-18T05:02:11.322Z,0.00
2024-02-18T05:03:11.431Z,0.00
2024-02-18T05:04:11.333Z,0.00
2024-02-18T05:05:11.342Z,0.00
2024-02-18T05:06:11.297Z,0.00
2024-02-18T05:07:11.330Z,0.00
2024-02-18T05:08:11.319Z,0.00
2024-02-18T05:09:11.256Z,0.00
2024-02-18T05:10:11.343Z,0.00
2024-02-18T05:11:11.299Z,0.00
2024-02-18T05:12:11.226Z,0.00
2024-02-18T05:13:11.244Z,0.00
2024-02-18T05:14:11.216Z,0.00
2024-02-18T05:15:11.221Z,0.00
2024-02-18T05:16:11.205Z,0.00
2024-02-18T05:17:11.174Z,0.00
2024-02-18T05:18:11.308Z,0.00
2024-02-18T05:19:11.245Z,0.00
2024-02-18T05:20:11.753Z,0.00
2024-02-18T05:21:11.145Z,0.00
2024-02-18T05:22:11.157Z,0.00
2024-02-18T05:23:11.115Z,0.00
2024-02-18T05:24:11.194Z,0.00
2024-02-18T05:25:11.165Z,0.00
2024-02-18T05:26:11.088Z,0.00
2024-02-18T05:27:11.075Z,0.00
2024-02-18T05:28:11.164Z,0.00
2024-02-18T05:29:11.091Z,0.00
2024-02-18T05:30:11.033Z,0.00
2024-02-18T05:31:11.058Z,0.00
2024-02-18T05:32:11.019Z,0.00
2024-02-18T05:33:11.126Z,0.00
2024-02-18T05:34:11.299Z,0.00
2024-02-18T05:35:12.146Z,0.00
2024-02-18T05:36:10.976Z,0.00
2024-02-18T05:37:11.000Z,0.00
2024-02-18T05:38:10.962Z,0.00
2024-02-18T05:39:10.968Z,0.00
2024-02-18T05:40:11.033Z,0.00
2024-02-18T05:41:10.932Z,0.00
2024-02-18T05:42:10.943Z,0.00
2024-02-18T05:43:10.998Z,0.00
2024-02-18T05:44:10.845Z,0.00
2024-02-18T05:45:10.905Z,0.00
2024-02-18T05:46:10.897Z,0.00
2024-02-18T05:47:10.894Z,0.00
2024-02-18T05:48:10.985Z,0.00
2024-02-18T05:49:11.006Z,0.00
2024-02-18T05:50:10.914Z,0.00
2024-02-18T05:51:10.825Z,0.00
2024-02-18T05:52:10.858Z,0.00
2024-02-18T05:53:10.809Z,0.00
2024-02-18T05:54:10.743Z,0.00
2024-02-18T05:55:10.872Z,0.00
2024-02-18T05:56:10.809Z,0.00
2024-02-18T05:57:10.791Z,0.00
2024-02-18T05:58:10.848Z,0.00
2024-02-18T05:59:10.789Z,0.00
2024-02-18T06:00:10.727Z,0.00
2024-02-18T06:01:10.793Z,0.00
2024-02-18T06:02:10.699Z,0.00
2024-02-18T06:03:10.762Z,0.00
2024-02-18T06:04:10.742Z,0.00
2024-02-18T06:05:10.678Z,0.00
2024-02-18T06:06:10.745Z,0.00
2024-02-18T06:07:10.743Z,0.00
2024-02-18T06:08:10.678Z,0.00
2024-02-18T06:09:10.584Z,0.00
2024-02-18T06:10:10.760Z,0.00
2024-02-18T06:11:10.678Z,0.00
2024-02-18T06:12:10.564Z,0.00
2024-02-18T06:13:10.584Z,0.00
2024-02-18T06:14:10.535Z,0.00
2024-02-18T06:15:10.553Z,0.00
2024-02-18T06:16:10.618Z,0.00
2024-02-18T06:17:10.506Z,0.00
2024-02-18T06:18:10.609Z,0.00
2024-02-18T06:19:14.535Z,0.00
2024-02-18T06:20:11.195Z,0.00
2024-02-18T06:21:10.488Z,0.00
2024-02-18T06:22:10.518Z,0.00
2024-02-18T06:23:10.453Z,0.00
2024-02-18T06:24:10.449Z,0.00
2024-02-18T06:25:10.496Z,0.00
2024-02-18T06:26:10.417Z,0.00
2024-02-18T06:27:10.389Z,0.00
2024-02-18T06:28:10.467Z,0.00
2024-02-18T06:29:10.403Z,0.00
2024-02-18T06:30:10.379Z,0.00
2024-02-18T06:31:10.476Z,0.00
2024-02-18T06:32:10.359Z,0.00
2024-02-18T06:33:10.369Z,0.00
2024-02-18T06:34:10.432Z,0.00
2024-02-18T06:35:10.381Z,0.00
2024-02-18T06:36:10.313Z,0.00
2024-02-18T06:37:10.339Z,0.00
2024-02-18T06:38:10.302Z,5.62
2024-02-18T06:39:10.338Z,5.62
2024-02-18T06:40:10.344Z,5.62
2024-02-18T06:41:10.277Z,5.62
2024-02-18T06:42:10.254Z,5.62
2024-02-18T06:43:10.298Z,5.62
2024-02-18T06:44:10.242Z,5.62
2024-02-18T06:45:10.218Z,5.62
2024-02-18T06:46:12.898Z,5.62
2024-02-18T06:47:10.186Z,5.62
2024-02-18T06:48:10.282Z,5.62
2024-02-18T06:49:10.250Z,11.25
2024-02-18T06:50:10.290Z,11.25
2024-02-18T06:51:10.152Z,11.25
2024-02-18T06:52:10.190Z,11.25
2024-02-18T06:53:10.153Z,11.25
2024-02-18T06:54:10.129Z,11.25
2024-02-18T06:55:10.154Z,11.25
2024-02-18T06:56:10.108Z,11.25
2024-02-18T06:57:10.189Z,16.88
2024-02-18T06:58:10.170Z,16.88
2024-02-18T06:59:10.066Z,16.88
2024-02-18T07:00:10.070Z,16.88
2024-02-18T07:01:10.094Z,16.88
2024-02-18T07:02:10.094Z,16.88
2024-02-18T07:03:10.032Z,22.50
2024-02-18T07:04:10.097Z,22.50
2024-02-18T07:05:10.287Z,22.50
2024-02-18T07:06:10.137Z,22.50
2024-02-18T07:07:10.089Z,22.50
2024-02-18T07:08:09.979Z,28.12
2024-02-18T07:09:09.962Z,28.12
2024-02-18T07:10:10.073Z,33.75
2024-02-18T07:11:10.040Z,33.75
2024-02-18T07:12:09.970Z,39.38
2024-02-18T07:13:10.037Z,39.38
2024-02-18T07:14:09.917Z,45.00
2024-02-18T07:15:09.907Z,50.62
2024-02-18T07:16:10.046Z,50.62
2024-02-18T07:17:09.895Z,61.88
2024-02-18T07:18:09.981Z,61.88
2024-02-18T07:19:10.088Z,56.25
2024-02-18T07:20:10.060Z,61.88
2024-02-18T07:21:09.910Z,50.62
2024-02-18T07:22:09.950Z,56.25
2024-02-18T07:23:09.869Z,50.62
2024-02-18T07:24:09.885Z,50.62
2024-02-18T07:25:09.908Z,50.62
2024-02-18T07:26:09.816Z,50.62
2024-02-18T07:27:09.778Z,56.25
2024-02-18T07:28:09.896Z,56.25
2024-02-18T07:29:09.754Z,56.25
2024-02-18T07:30:09.785Z,56.25
2024-02-18T07:31:09.839Z,56.25
2024-02-18T07:32:09.739Z,50.62
2024-02-18T07:33:09.779Z,56.25
2024-02-18T07:34:09.789Z,61.88
2024-02-18T07:35:09.720Z,61.88
2024-02-18T07:36:09.698Z,67.50
2024-02-18T07:37:09.714Z,73.12
2024-02-18T07:38:09.687Z,73.12
2024-02-18T07:39:09.914Z,67.50
2024-02-18T07:40:09.802Z,67.50
2024-02-18T07:41:09.643Z,67.50
2024-02-18T07:42:09.655Z,56.25
2024-02-18T07:43:09.690Z,61.88
2024-02-18T07:44:09.643Z,67.50
2024-02-18T07:45:09.592Z,67.50
2024-02-18T07:46:09.681Z,56.25
2024-02-18T07:47:09.576Z,56.25
2024-02-18T07:48:09.662Z,56.25
2024-02-18T07:49:09.695Z,56.25
2024-02-18T07:50:09.552Z,56.25
2024-02-18T07:51:09.539Z,56.25
2024-02-18T07:52:09.631Z,56.25
2024-02-18T07:53:09.585Z,50.62
2024-02-18T07:54:09.540Z,50.62
2024-02-18T07:55:09.654Z,45.00
2024-02-18T07:56:09.477Z,45.00
2024-02-18T07:57:09.463Z,45.00
2024-02-18T07:58:09.539Z,45.00
2024-02-18T07:59:09.457Z,45.00
2024-02-18T08:00:09.454Z,45.00
2024-02-18T08:01:09.591Z,39.38
2024-02-18T08:02:09.476Z,33.75
2024-02-18T08:03:09.419Z,33.75
2024-02-18T08:04:09.509Z,28.12
2024-02-18T08:05:09.779Z,28.12
2024-02-18T08:06:09.694Z,28.12
2024-02-18T08:07:09.564Z,33.75
2024-02-18T08:08:09.384Z,33.75
2024-02-18T08:09:09.369Z,33.75
2024-02-18T08:10:09.615Z,39.38
2024-02-18T08:11:09.394Z,39.38
2024-02-18T08:12:09.362Z,39.38
2024-02-18T08:13:09.450Z,39.38
2024-02-18T08:14:09.386Z,39.38
2024-02-18T08:15:09.416Z,45.00
2024-02-18T08:16:09.401Z,39.38
2024-02-18T08:17:09.378Z,39.38
2024-02-18T08:18:09.468Z,33.75
2024-02-18T08:19:09.361Z,33.75
2024-02-18T08:20:09.249Z,33.75
2024-02-18T08:21:09.226Z,33.75
2024-02-18T08:22:09.613Z,33.75
2024-02-18T08:23:09.295Z,33.75
2024-02-18T08:24:09.196Z,33.75
2024-02-18T08:25:09.209Z,33.75
2024-02-18T08:26:09.192Z,33.75
2024-02-18T08:27:09.167Z,33.75
2024-02-18T08:28:09.310Z,28.12
2024-02-18T08:29:09.138Z,28.12
2024-02-18T08:30:09.138Z,28.12
2024-02-18T08:31:09.902Z,28.12
2024-02-18T08:32:09.116Z,28.12
2024-02-18T08:33:09.174Z,22.50
2024-02-18T08:34:09.221Z,22.50
2024-02-18T08:35:09.291Z,22.50
2024-02-18T08:36:09.093Z,22.50
2024-02-18T08:37:09.140Z,22.50
2024-02-18T08:38:09.051Z,22.50
2024-02-18T08:39:09.041Z,22.50
2024-02-18T08:40:09.080Z,22.50
2024-02-18T08:41:09.020Z,22.50
2024-02-18T08:42:09.018Z,22.50
2024-02-18T08:43:09.127Z,22.50
2024-02-18T08:44:09.023Z,22.50
2024-02-18T08:45:09.003Z,22.50
2024-02-18T08:46:09.116Z,22.50
2024-02-18T08:47:08.982Z,22.50
2024-02-18T08:48:09.066Z,22.50
2024-02-18T08:49:09.016Z,22.50
2024-02-18T08:50:09.105Z,22.50
2024-02-18T08:51:08.943Z,22.50
2024-02-18T08:52:08.998Z,22.50
2024-02-18T08:53:08.919Z,22.50
2024-02-18T08:54:08.916Z,22.50
2024-02-18T08:55:08.934Z,22.50
2024-02-18T08:56:08.872Z,22.50
2024-02-18T08:57:08.861Z,22.50
2024-02-18T08:58:08.973Z,22.50
2024-02-18T08:59:08.861Z,22.50
2024-02-18T09:00:08.832Z,16.88
2024-02-18T09:01:08.928Z,16.88
2024-02-18T09:02:08.855Z,22.50
2024-02-18T09:03:08.801Z,16.88
2024-02-18T09:04:08.866Z,16.88
2024-02-18T09:05:09.104Z,16.88
2024-02-18T09:06:08.819Z,16.88
2024-02-18T09:07:08.828Z,16.88
2024-02-18T09:08:08.747Z,16.88
2024-02-18T09:09:08.753Z,16.88
2024-02-18T09:10:08.750Z,16.88
2024-02-18T09:11:08.830Z,22.50
2024-02-18T09:12:08.706Z,16.88
2024-02-18T09:13:08.796Z,16.88
2024-02-18T09:14:08.723Z,16.88
2024-02-18T09:15:08.692Z,22.50
2024-02-18T09:16:08.740Z,22.50
2024-02-18T09:17:08.646Z,22.50
2024-02-18T09:18:08.749Z,22.50
2024-02-18T09:19:08.727Z,22.50
2024-02-18T09:20:08.719Z,22.50
2024-02-18T09:21:08.618Z,22.50
2024-02-18T09:22:08.717Z,22.50
2024-02-18T09:23:08.604Z,22.50
2024-02-18T09:24:08.594Z,22.50
2024-02-18T09:25:08.715Z,22.50
2024-02-18T09:26:08.571Z,22.50
2024-02-18T09:27:08.567Z,16.88
2024-02-18T09:28:08.646Z,16.88
2024-02-18T09:29:08.558Z,22.50
2024-02-18T09:30:08.519Z,16.88
2024-02-18T09:31:08.586Z,16.88
2024-02-18T09:32:08.608Z,16.88
2024-02-18T09:33:08.505Z,22.50
2024-02-18T09:34:08.577Z,22.50
2024-02-18T09:35:08.566Z,22.50
2024-02-18T09:36:08.469Z,22.50
2024-02-18T09:37:08.632Z,22.50
2024-02-18T09:38:08.433Z,22.50
2024-02-18T09:39:08.422Z,22.50
2024-02-18T09:40:08.515Z,22.50
2024-02-18T09:41:08.430Z,22.50
2024-02-18T09:42:08.615Z,22.50
2024-02-18T09:43:08.439Z,22.50
2024-02-18T09:44:08.382Z,22.50
2024-02-18T09:45:08.362Z,22.50
2024-02-18T09:46:08.435Z,16.88
2024-02-18T09:47:08.342Z,16.88
2024-02-18T09:48:08.422Z,16.88
2024-02-18T09:49:08.610Z,16.88
2024-02-18T09:50:08.379Z,16.88
2024-02-18T09:51:08.315Z,22.50
2024-02-18T09:52:08.372Z,16.88
2024-02-18T09:53:08.276Z,16.88
2024-02-18T09:54:08.290Z,16.88
2024-02-18T09:55:08.427Z,22.50
2024-02-18T09:56:08.274Z,22.50
2024-02-18T09:57:08.275Z,22.50
2024-02-18T09:58:08.337Z,22.50
2024-02-18T09:59:08.225Z,22.50
2024-02-18T10:00:08.241Z,22.50
2024-02-18T10:01:08.265Z,22.50
2024-02-18T10:02:08.196Z,22.50
2024-02-18T10:03:08.211Z,22.50
2024-02-18T10:04:08.237Z,22.50
2024-02-18T10:05:08.212Z,22.50
2024-02-18T10:06:08.152Z,22.50
2024-02-18T10:07:08.192Z,22.50
2024-02-18T10:08:08.130Z,22.50
2024-02-18T10:09:08.199Z,22.50
2024-02-18T10:10:08.613Z,22.50
2024-02-18T10:11:08.117Z,22.50
2024-02-18T10:12:08.091Z,22.50
2024-02-18T10:13:08.228Z,22.50
2024-02-18T10:14:08.610Z,22.50
2024-02-18T10:15:08.077Z,22.50
2024-02-18T10:16:08.233Z,22.50
2024-02-18T10:17:08.043Z,22.50
2024-02-18T10:18:08.141Z,22.50
2024-02-18T10:19:08.957Z,22.50
2024-02-18T10:20:08.242Z,22.50
2024-02-18T10:21:08.005Z,22.50
2024-02-18T10:22:08.146Z,22.50
2024-02-18T10:23:08.004Z,22.50
2024-02-18T10:24:07.988Z,22.50
2024-02-18T10:25:07.979Z,22.50
2024-02-18T10:26:07.953Z,22.50
2024-02-18T10:27:07.939Z,22.50
2024-02-18T10:28:08.015Z,22.50
2024-02-18T10:29:07.917Z,22.50
2024-02-18T10:30:07.920Z,28.12
2024-02-18T10:31:07.904Z,28.12
2024-02-18T10:32:07.920Z,28.12
2024-02-18T10:33:07.937Z,28.12
2024-02-18T10:34:08.047Z,22.50
2024-02-18T10:35:08.094Z,28.12
2024-02-18T10:36:07.912Z,28.12
2024-02-18T10:37:07.902Z,28.12
2024-02-18T10:38:07.839Z,28.12
2024-02-18T10:39:07.814Z,33.75
2024-02-18T10:40:07.865Z,33.75
2024-02-18T10:41:07.794Z,33.75
2024-02-18T10:42:07.795Z,33.75
2024-02-18T10:43:07.934Z,28.12
2024-02-18T10:44:07.751Z,28.12
2024-02-18T10:45:07.756Z,28.12
2024-02-18T10:46:10.502Z,33.75
2024-02-18T10:47:07.740Z,33.75
2024-02-18T10:48:07.851Z,33.75
2024-02-18T10:49:07.810Z,39.38
2024-02-18T10:50:07.722Z,33.75
2024-02-18T10:51:07.716Z,39.38
2024-02-18T10:52:07.899Z,33.75
2024-02-18T10:53:07.675Z,39.38
2024-02-18T10:54:07.652Z,50.62
2024-02-18T10:55:07.739Z,45.00
2024-02-18T10:56:07.678Z,50.62
2024-02-18T10:57:07.631Z,50.62
2024-02-18T10:58:07.642Z,56.25
2024-02-18T10:59:07.598Z,56.25
2024-02-18T11:00:07.608Z,56.25
2024-02-18T11:01:07.688Z,61.88
2024-02-18T11:02:07.588Z,50.62
2024-02-18T11:03:07.542Z,50.62
2024-02-18T11:04:08.353Z,67.50
2024-02-18T11:05:07.693Z,67.50
2024-02-18T11:06:07.684Z,73.12
2024-02-18T11:07:07.761Z,78.75
2024-02-18T11:08:07.573Z,84.38
2024-02-18T11:09:07.496Z,84.38
2024-02-18T11:10:07.613Z,90.00
2024-02-18T11:11:07.542Z,90.00
2024-02-18T11:12:07.458Z,90.00
2024-02-18T11:13:07.644Z,84.38
2024-02-18T11:14:07.459Z,90.00
2024-02-18T11:15:07.448Z,90.00
2024-02-18T11:16:07.454Z,95.62
2024-02-18T11:17:07.411Z,95.62
2024-02-18T11:18:07.510Z,95.62
2024-02-18T11:19:07.532Z,95.62
2024-02-18T11:20:07.448Z,90.00
2024-02-18T11:21:07.376Z,90.00
2024-02-18T11:22:07.472Z,90.00
2024-02-18T11:23:07.381Z,90.00
2024-02-18T11:24:07.372Z,84.38
2024-02-18T11:25:07.620Z,90.00
2024-02-18T11:26:07.311Z,84.38
2024-02-18T11:27:07.299Z,84.38
2024-02-18T11:28:07.403Z,78.75
2024-02-18T11:29:07.320Z,78.75
2024-02-18T11:30:07.288Z,78.75
2024-02-18T11:31:07.425Z,78.75
2024-02-18T11:32:07.243Z,67.50
2024-02-18T11:33:07.364Z,73.12
2024-02-18T11:34:07.367Z,73.12
2024-02-18T11:35:07.330Z,73.12
2024-02-18T11:36:07.216Z,73.12
2024-02-18T11:37:07.366Z,73.12
2024-02-18T11:38:07.210Z,67.50
2024-02-18T11:39:07.175Z,67.50
2024-02-18T11:40:08.995Z,67.50
2024-02-18T11:41:07.172Z,67.50
2024-02-18T11:42:07.142Z,67.50
2024-02-18T11:43:07.252Z,67.50
2024-02-18T11:44:07.114Z,67.50
2024-02-18T11:45:07.117Z,67.50
2024-02-18T11:46:09.330Z,67.50
2024-02-18T11:47:07.121Z,67.50
2024-02-18T11:48:07.122Z,67.50
2024-02-18T11:49:07.139Z,67.50
2024-02-18T11:50:07.084Z,67.50
2024-02-18T11:51:07.264Z,67.50
2024-02-18T11:52:07.215Z,67.50
2024-02-18T11:53:07.036Z,67.50
2024-02-18T11:54:07.061Z,67.50
2024-02-18T11:55:07.077Z,61.88
2024-02-18T11:56:07.106Z,61.88
2024-02-18T11:57:07.026Z,61.88
2024-02-18T11:58:07.117Z,61.88
2024-02-18T11:59:06.969Z,61.88
2024-02-18T12:00:06.954Z,56.25
2024-02-18T12:01:07.049Z,56.25
2024-02-18T12:02:07.019Z,56.25
2024-02-18T12:03:06.942Z,56.25
2024-02-18T12:04:07.004Z,56.25
2024-02-18T12:05:07.035Z,56.25
2024-02-18T12:06:07.045Z,56.25
2024-02-18T12:07:06.988Z,56.25
2024-02-18T12:08:06.869Z,56.25
2024-02-18T12:09:06.890Z,56.25
2024-02-18T12:10:06.939Z,56.25
2024-02-18T12:11:06.931Z,56.25
2024-02-18T12:12:06.829Z,56.25
2024-02-18T12:13:06.912Z,56.25
2024-02-18T12:14:06.823Z,56.25
2024-02-18T12:15:06.826Z,56.25
2024-02-18T12:16:06.916Z,56.25
2024-02-18T12:17:06.777Z,56.25
2024-02-18T12:18:06.829Z,56.25
2024-02-18T12:19:06.902Z,50.62
2024-02-18T12:20:06.796Z,56.25
2024-02-18T12:21:06.947Z,56.25
2024-02-18T12:22:06.817Z,56.25
2024-02-18T12:23:06.725Z,56.25
2024-02-18T12:24:06.713Z,50.62
2024-02-18T12:25:08.554Z,56.25
2024-02-18T12:26:06.695Z,56.25
2024-02-18T12:27:06.679Z,50.62
2024-02-18T12:28:06.741Z,50.62
2024-02-18T12:29:06.655Z,50.62
2024-02-18T12:30:06.665Z,50.62
2024-02-18T12:31:06.795Z,50.62
2024-02-18T12:32:06.618Z,50.62
2024-02-18T12:33:06.731Z,50.62
2024-02-18T12:34:06.796Z,45.00
2024-02-18T12:35:06.694Z,45.00
2024-02-18T12:36:06.574Z,45.00
2024-02-18T12:37:18.754Z,45.00
2024-02-18T12:38:06.601Z,39.38
2024-02-18T12:39:06.576Z,39.38
2024-02-18T12:40:06.894Z,39.38
2024-02-18T12:41:06.536Z,39.38
2024-02-18T12:42:06.518Z,33.75
2024-02-18T12:43:38.697Z,33.75
2024-02-18T12:44:54.168Z,33.75
2024-02-18T12:46:09.059Z,39.38
2024-02-18T12:47:06.528Z,33.75
2024-02-18T12:48:06.633Z,33.75
2024-02-18T12:49:06.749Z,39.38
2024-02-18T12:50:06.471Z,33.75
2024-02-18T12:51:06.467Z,33.75
2024-02-18T12:52:06.452Z,33.75
2024-02-18T12:53:06.441Z,33.75
2024-02-18T12:54:06.401Z,33.75
2024-02-18T12:55:06.482Z,28.12
2024-02-18T12:56:06.388Z,28.12
2024-02-18T12:57:06.368Z,28.12
2024-02-18T12:58:06.493Z,28.12
2024-02-18T12:59:06.356Z,28.12
2024-02-18T13:00:06.354Z,28.12
2024-02-18T13:01:06.472Z,28.12
2024-02-18T13:02:06.364Z,22.50
2024-02-18T13:03:06.408Z,28.12
2024-02-18T13:04:06.333Z,28.12
2024-02-18T13:05:06.331Z,22.50
2024-02-18T13:06:06.276Z,22.50